No particular awareness of the weather is required.    There are no Weather-warnings


Meteo18 Weather Cam more information Meteo18 Weather Cam


Thunder radar more information blitzortung!


Rain radar more information rain snow radar


Visit our other weather sites:

Template documentation
and downloads

And another site



Weather Underground History page Text

Daily Summary for August 2, 2017 Units:  Both    English   Metric
« Previous Day
Next Day »
Daily Weekly Monthly Yearly Custom
  High: Low: Average:
Temperature: 85.1 °F /  29.5 °C 59.9 °F /  15.5 °C 72.3 °F /  22.4 °C
Dew Point: 68 °F /  20.0 °C 58.6 °F /  14.8 °C 63.5 °F /  17.5 °C
Humidity: 97 % 51 % 77 %
Wind Speed: 13 mph /  20.9 km/h - 2.1 mph /  3.3 km/h
Wind Gust: 15 mph /  24.1 km/h - -
Wind:- - SW
Pressure: 30.1 in /  1020.5 hPa 30 in /  1015.8 hPa -
Precipitation: 0.01 in /  0.3 mm    
Historical Graphs
 
 
Tabular Data for August 2, 2017
Time Temperature Dew Point Pressure Wind Wind Speed Wind Gust Humidity Rainfall Rate (Hourly)
00:02 63.9 °F /  17.7 °C 61.2 °F /  16.2 °C 30.1 in /  1019.5 hPa Calm   2 mph /  3.2 km/h 91 % 0 in /  0.0 mm
00:07 63.7 °F /  17.6 °C 61.3 °F /  16.3 °C 30.1 in /  1019.5 hPa Calm   2 mph /  3.2 km/h 92 % 0 in /  0.0 mm
00:12 63.7 °F /  17.6 °C 61.3 °F /  16.3 °C 30.1 in /  1019.5 hPa Calm   2 mph /  3.2 km/h 92 % 0 in /  0.0 mm
00:17 63.7 °F /  17.6 °C 61.3 °F /  16.3 °C 30.1 in /  1019.5 hPa Calm     92 % 0 in /  0.0 mm
00:22 63.5 °F /  17.5 °C 61.2 °F /  16.2 °C 30.1 in /  1019.5 hPa Calm     92 % 0 in /  0.0 mm
00:27 63.3 °F /  17.4 °C 61 °F /  16.1 °C 30.1 in /  1019.5 hPa Calm     92 % 0 in /  0.0 mm
00:32 63.1 °F /  17.3 °C 60.8 °F /  16.0 °C 30.1 in /  1019.5 hPa Calm     92 % 0 in /  0.0 mm
00:37 63.1 °F /  17.3 °C 60.8 °F /  16.0 °C 30.1 in /  1019.5 hPa Calm     92 % 0 in /  0.0 mm
00:42 63 °F /  17.2 °C 61 °F /  16.1 °C 30.1 in /  1019.5 hPa Calm     93 % 0 in /  0.0 mm
00:52 63 °F /  17.2 °C 61 °F /  16.1 °C 30.1 in /  1019.5 hPa Calm   1 mph /  1.6 km/h 93 % 0 in /  0.0 mm
00:57 62.8 °F /  17.1 °C 60.8 °F /  16.0 °C 30.1 in /  1019.5 hPa Calm   1 mph /  1.6 km/h 93 % 0 in /  0.0 mm
01:02 62.4 °F /  16.9 °C 60.4 °F /  15.8 °C 30.1 in /  1019.5 hPa Calm   1 mph /  1.6 km/h 93 % 0 in /  0.0 mm
01:07 62.2 °F /  16.8 °C 60.3 °F /  15.7 °C 30.1 in /  1019.5 hPa Calm   1 mph /  1.6 km/h 93 % 0 in /  0.0 mm
01:12 62.1 °F /  16.7 °C 60.3 °F /  15.7 °C 30.1 in /  1019.5 hPa Calm   1 mph /  1.6 km/h 94 % 0 in /  0.0 mm
01:22 62.1 °F /  16.7 °C 60.3 °F /  15.7 °C 30.1 in /  1019.5 hPa Calm     94 % 0 in /  0.0 mm
01:32 62.2 °F /  16.8 °C 60.4 °F /  15.8 °C 30.1 in /  1019.5 hPa Calm     94 % 0 in /  0.0 mm
01:37 62.2 °F /  16.8 °C 60.4 °F /  15.8 °C 30.1 in /  1019.5 hPa Calm     94 % 0 in /  0.0 mm
01:42 62.2 °F /  16.8 °C 60.4 °F /  15.8 °C 30.1 in /  1019.5 hPa Calm     94 % 0 in /  0.0 mm
01:47 61.9 °F /  16.6 °C 60.1 °F /  15.6 °C 30.1 in /  1019.5 hPa Calm     94 % 0 in /  0.0 mm
01:52 62.1 °F /  16.7 °C 60.6 °F /  15.9 °C 30.1 in /  1019.5 hPa Calm     95 % 0 in /  0.0 mm
02:02 62.1 °F /  16.7 °C 60.3 °F /  15.7 °C 30.1 in /  1019.5 hPa Calm     94 % 0 in /  0.0 mm
02:07 62.1 °F /  16.7 °C 60.3 °F /  15.7 °C 30.1 in /  1019.5 hPa Calm     94 % 0 in /  0.0 mm
02:12 62.1 °F /  16.7 °C 60.3 °F /  15.7 °C 30.1 in /  1019.5 hPa Calm     94 % 0 in /  0.0 mm
02:17 61.9 °F /  16.6 °C 60.1 °F /  15.6 °C 30.1 in /  1019.5 hPa Calm     94 % 0 in /  0.0 mm
02:22 61.5 °F /  16.4 °C 59.7 °F /  15.4 °C 30.1 in /  1019.5 hPa Calm     94 % 0 in /  0.0 mm
02:27 61.5 °F /  16.4 °C 59.7 °F /  15.4 °C 30.1 in /  1019.5 hPa Calm     94 % 0 in /  0.0 mm
02:32 61.5 °F /  16.4 °C 59.7 °F /  15.4 °C 30.1 in /  1019.5 hPa Calm     94 % 0 in /  0.0 mm
02:37 61.5 °F /  16.4 °C 59.7 °F /  15.4 °C 30.1 in /  1019.5 hPa Calm     94 % 0 in /  0.0 mm
02:42 61.3 °F /  16.3 °C 59.5 °F /  15.3 °C 30.1 in /  1019.5 hPa Calm     94 % 0 in /  0.0 mm
02:47 61.3 °F /  16.3 °C 59.5 °F /  15.3 °C 30.1 in /  1019.2 hPa Calm     94 % 0 in /  0.0 mm
02:52 61.2 °F /  16.2 °C 59.4 °F /  15.2 °C 30.1 in /  1019.5 hPa Calm     94 % 0 in /  0.0 mm
02:57 61.2 °F /  16.2 °C 59.7 °F /  15.4 °C 30.1 in /  1019.5 hPa Calm     95 % 0 in /  0.0 mm
03:02 61.2 °F /  16.2 °C 59.7 °F /  15.4 °C 30.1 in /  1019.5 hPa Calm     95 % 0 in /  0.0 mm
03:07 61.2 °F /  16.2 °C 59.7 °F /  15.4 °C 30.1 in /  1019.2 hPa Calm     95 % 0 in /  0.0 mm
03:12 61.2 °F /  16.2 °C 59.7 °F /  15.4 °C 30.1 in /  1019.2 hPa Calm     95 % 0 in /  0.0 mm
03:17 61.2 °F /  16.2 °C 59.7 °F /  15.4 °C 30.1 in /  1019.2 hPa Calm     95 % 0 in /  0.0 mm
03:22 61 °F /  16.1 °C 59.5 °F /  15.3 °C 30.1 in /  1019.2 hPa Calm     95 % 0 in /  0.0 mm
03:27 61 °F /  16.1 °C 59.5 °F /  15.3 °C 30.1 in /  1019.2 hPa Calm     95 % 0 in /  0.0 mm
03:32 61 °F /  16.1 °C 59.5 °F /  15.3 °C 30.1 in /  1019.5 hPa Calm     95 % 0 in /  0.0 mm
03:37 61.2 °F /  16.2 °C 59.7 °F /  15.4 °C 30.1 in /  1019.5 hPa Calm     95 % 0 in /  0.0 mm
03:42 61.2 °F /  16.2 °C 59.7 °F /  15.4 °C 30.1 in /  1019.5 hPa Calm     95 % 0 in /  0.0 mm
03:47 61 °F /  16.1 °C 59.5 °F /  15.3 °C 30.1 in /  1019.5 hPa Calm     95 % 0 in /  0.0 mm
03:52 60.8 °F /  16.0 °C 59.4 °F /  15.2 °C 30.1 in /  1019.5 hPa Calm     95 % 0 in /  0.0 mm
03:57 60.6 °F /  15.9 °C 59.2 °F /  15.1 °C 30.1 in /  1019.5 hPa Calm     95 % 0 in /  0.0 mm
04:02 60.6 °F /  15.9 °C 59.2 °F /  15.1 °C 30.1 in /  1019.5 hPa Calm     95 % 0 in /  0.0 mm
04:07 60.6 °F /  15.9 °C 59.2 °F /  15.1 °C 30.1 in /  1019.5 hPa Calm     95 % 0 in /  0.0 mm
04:12 60.6 °F /  15.9 °C 59.2 °F /  15.1 °C 30.1 in /  1019.5 hPa Calm     95 % 0 in /  0.0 mm
04:17 60.6 °F /  15.9 °C 59.2 °F /  15.1 °C 30.1 in /  1019.5 hPa Calm     95 % 0 in /  0.0 mm
04:22 60.6 °F /  15.9 °C 59.2 °F /  15.1 °C 30.1 in /  1019.5 hPa Calm     95 % 0 in /  0.0 mm
04:27 60.4 °F /  15.8 °C 59 °F /  15.0 °C 30.1 in /  1019.5 hPa Calm     95 % 0 in /  0.0 mm
04:32 60.4 °F /  15.8 °C 59 °F /  15.0 °C 30.1 in /  1019.5 hPa Calm     95 % 0 in /  0.0 mm
04:37 60.4 °F /  15.8 °C 59 °F /  15.0 °C 30.1 in /  1019.5 hPa Calm     95 % 0 in /  0.0 mm
04:42 60.3 °F /  15.7 °C 58.8 °F /  14.9 °C 30.1 in /  1019.5 hPa Calm     95 % 0 in /  0.0 mm
04:47 60.1 °F /  15.6 °C 59 °F /  15.0 °C 30.1 in /  1019.5 hPa Calm     96 % 0 in /  0.0 mm
04:52 60.4 °F /  15.8 °C 59.4 °F /  15.2 °C 30.1 in /  1019.5 hPa Calm     96 % 0 in /  0.0 mm
04:57 60.4 °F /  15.8 °C 59.4 °F /  15.2 °C 30.1 in /  1019.9 hPa NNE 1 mph /  1.6 km/h   96 % 0 in /  0.0 mm
05:02 60.6 °F /  15.9 °C 59.5 °F /  15.3 °C 30.1 in /  1019.5 hPa North 2 mph /  3.2 km/h 2 mph /  3.2 km/h 96 % 0 in /  0.0 mm
05:12 61.2 °F /  16.2 °C 60.1 °F /  15.6 °C 30.1 in /  1019.5 hPa Calm   2 mph /  3.2 km/h 96 % 0 in /  0.0 mm
05:17 61.2 °F /  16.2 °C 60.1 °F /  15.6 °C 30.1 in /  1019.5 hPa Calm   2 mph /  3.2 km/h 96 % 0 in /  0.0 mm
05:22 60.8 °F /  16.0 °C 59.4 °F /  15.2 °C 30.1 in /  1019.5 hPa NE 1 mph /  1.6 km/h 1 mph /  1.6 km/h 95 % 0 in /  0.0 mm
05:32 60.6 °F /  15.9 °C 59.2 °F /  15.1 °C 30.1 in /  1019.5 hPa Calm   1 mph /  1.6 km/h 95 % 0 in /  0.0 mm
05:37 60.6 °F /  15.9 °C 59.2 °F /  15.1 °C 30.1 in /  1019.5 hPa Calm   1 mph /  1.6 km/h 95 % 0 in /  0.0 mm
05:42 60.3 °F /  15.7 °C 58.8 °F /  14.9 °C 30.1 in /  1019.5 hPa Calm   1 mph /  1.6 km/h 95 % 0 in /  0.0 mm
05:47 60.1 °F /  15.6 °C 58.6 °F /  14.8 °C 30.1 in /  1019.5 hPa NNE 1 mph /  1.6 km/h 1 mph /  1.6 km/h 95 % 0 in /  0.0 mm
05:52 60.1 °F /  15.6 °C 58.6 °F /  14.8 °C 30.1 in /  1019.9 hPa Calm   1 mph /  1.6 km/h 95 % 0 in /  0.0 mm
05:57 60.3 °F /  15.7 °C 59.2 °F /  15.1 °C 30.1 in /  1019.9 hPa Calm   1 mph /  1.6 km/h 96 % 0 in /  0.0 mm
06:02 60.3 °F /  15.7 °C 59.2 °F /  15.1 °C 30.1 in /  1019.5 hPa Calm   1 mph /  1.6 km/h 96 % 0 in /  0.0 mm
06:07 60.3 °F /  15.7 °C 59.2 °F /  15.1 °C 30.1 in /  1019.5 hPa Calm     96 % 0 in /  0.0 mm
06:12 60.3 °F /  15.7 °C 59.2 °F /  15.1 °C 30.1 in /  1019.5 hPa Calm   1 mph /  1.6 km/h 96 % 0 in /  0.0 mm
06:17 60.1 °F /  15.6 °C 59 °F /  15.0 °C 30.1 in /  1019.5 hPa Calm   1 mph /  1.6 km/h 96 % 0 in /  0.0 mm
06:22 60.1 °F /  15.6 °C 59 °F /  15.0 °C 30.1 in /  1019.9 hPa Calm   1 mph /  1.6 km/h 96 % 0 in /  0.0 mm
06:27 60.1 °F /  15.6 °C 59 °F /  15.0 °C 30.1 in /  1019.9 hPa Calm     96 % 0 in /  0.0 mm
06:32 60.1 °F /  15.6 °C 59 °F /  15.0 °C 30.1 in /  1019.9 hPa Calm     96 % 0 in /  0.0 mm
06:37 59.9 °F /  15.5 °C 58.8 °F /  14.9 °C 30.1 in /  1019.9 hPa Calm     96 % 0 in /  0.0 mm
06:42 60.1 °F /  15.6 °C 59 °F /  15.0 °C 30.1 in /  1019.9 hPa Calm     96 % 0 in /  0.0 mm
06:47 60.1 °F /  15.6 °C 59 °F /  15.0 °C 30.1 in /  1019.9 hPa Calm     96 % 0 in /  0.0 mm
06:52 60.1 °F /  15.6 °C 59 °F /  15.0 °C 30.1 in /  1019.9 hPa Calm     96 % 0 in /  0.0 mm
07:02 60.1 °F /  15.6 °C 59 °F /  15.0 °C 30.1 in /  1020.2 hPa Calm     96 % 0 in /  0.0 mm
07:07 60.1 °F /  15.6 °C 59 °F /  15.0 °C 30.1 in /  1020.2 hPa Calm     96 % 0 in /  0.0 mm
07:12 60.3 °F /  15.7 °C 59.2 °F /  15.1 °C 30.1 in /  1020.2 hPa Calm   1 mph /  1.6 km/h 96 % 0 in /  0.0 mm
07:17 60.3 °F /  15.7 °C 59.2 °F /  15.1 °C 30.1 in /  1019.9 hPa Calm   1 mph /  1.6 km/h 96 % 0 in /  0.0 mm
07:22 60.4 °F /  15.8 °C 59.4 °F /  15.2 °C 30.1 in /  1019.9 hPa Calm   2 mph /  3.2 km/h 96 % 0 in /  0.0 mm
07:27 60.4 °F /  15.8 °C 59.4 °F /  15.2 °C 30.1 in /  1019.9 hPa Calm   2 mph /  3.2 km/h 96 % 0 in /  0.0 mm
07:32 60.3 °F /  15.7 °C 59.2 °F /  15.1 °C 30.1 in /  1019.9 hPa Calm   2 mph /  3.2 km/h 96 % 0 in /  0.0 mm
07:37 60.3 °F /  15.7 °C 59.2 °F /  15.1 °C 30.1 in /  1019.9 hPa Calm   1 mph /  1.6 km/h 96 % 0 in /  0.0 mm
07:42 60.4 °F /  15.8 °C 59.4 °F /  15.2 °C 30.1 in /  1020.2 hPa Calm   1 mph /  1.6 km/h 96 % 0 in /  0.0 mm
07:47 60.6 °F /  15.9 °C 59.7 °F /  15.4 °C 30.1 in /  1020.2 hPa Calm     97 % 0 in /  0.0 mm
07:52 60.8 °F /  16.0 °C 59.9 °F /  15.5 °C 30.1 in /  1020.2 hPa Calm     97 % 0 in /  0.0 mm
07:57 61.2 °F /  16.2 °C 60.3 °F /  15.7 °C 30.1 in /  1020.2 hPa Calm     97 % 0 in /  0.0 mm
08:02 61.3 °F /  16.3 °C 60.4 °F /  15.8 °C 30.1 in /  1020.2 hPa Calm     97 % 0 in /  0.0 mm
08:07 61.5 °F /  16.4 °C 60.6 °F /  15.9 °C 30.1 in /  1020.2 hPa Calm     97 % 0 in /  0.0 mm
08:12 61.7 °F /  16.5 °C 60.8 °F /  16.0 °C 30.1 in /  1020.2 hPa South 2 mph /  3.2 km/h   97 % 0 in /  0.0 mm
08:17 61.9 °F /  16.6 °C 61 °F /  16.1 °C 30.1 in /  1020.2 hPa SW 2 mph /  3.2 km/h 3 mph /  4.8 km/h 97 % 0 in /  0.0 mm
08:22 62.1 °F /  16.7 °C 61.2 °F /  16.2 °C 30.1 in /  1020.2 hPa South 1 mph /  1.6 km/h 3 mph /  4.8 km/h 97 % 0 in /  0.0 mm
08:32 62.2 °F /  16.8 °C 61.3 °F /  16.3 °C 30.1 in /  1020.2 hPa Calm   3 mph /  4.8 km/h 97 % 0 in /  0.0 mm
08:37 62.4 °F /  16.9 °C 61.5 °F /  16.4 °C 30.1 in /  1020.2 hPa Calm   2 mph /  3.2 km/h 97 % 0 in /  0.0 mm
08:42 62.8 °F /  17.1 °C 61.9 °F /  16.6 °C 30.1 in /  1020.5 hPa SW 1 mph /  1.6 km/h 2 mph /  3.2 km/h 97 % 0 in /  0.0 mm
08:47 63 °F /  17.2 °C 62.1 °F /  16.7 °C 30.1 in /  1020.5 hPa Calm   2 mph /  3.2 km/h 97 % 0 in /  0.0 mm
08:52 63.3 °F /  17.4 °C 62.4 °F /  16.9 °C 30.1 in /  1020.5 hPa SSE 1 mph /  1.6 km/h 2 mph /  3.2 km/h 97 % 0 in /  0.0 mm
08:57 63.7 °F /  17.6 °C 62.8 °F /  17.1 °C 30.1 in /  1020.2 hPa South 1 mph /  1.6 km/h 4 mph /  6.4 km/h 97 % 0 in /  0.0 mm
09:02 63.7 °F /  17.6 °C 62.8 °F /  17.1 °C 30.1 in /  1020.2 hPa SSW 1 mph /  1.6 km/h 4 mph /  6.4 km/h 97 % 0 in /  0.0 mm
09:07 63.9 °F /  17.7 °C 63 °F /  17.2 °C 30.1 in /  1020.2 hPa WSW 1 mph /  1.6 km/h 4 mph /  6.4 km/h 97 % 0 in /  0.0 mm
09:12 64 °F /  17.8 °C 63.1 °F /  17.3 °C 30.1 in /  1020.2 hPa Calm   3 mph /  4.8 km/h 97 % 0 in /  0.0 mm
09:17 64.2 °F /  17.9 °C 63.3 °F /  17.4 °C 30.1 in /  1020.2 hPa WSW 1 mph /  1.6 km/h 3 mph /  4.8 km/h 97 % 0 in /  0.0 mm
09:22 64.6 °F /  18.1 °C 63.7 °F /  17.6 °C 30.1 in /  1020.2 hPa SW 2 mph /  3.2 km/h 2 mph /  3.2 km/h 97 % 0 in /  0.0 mm
09:27 64.6 °F /  18.1 °C 63.5 °F /  17.5 °C 30.1 in /  1020.2 hPa SSE 2 mph /  3.2 km/h 2 mph /  3.2 km/h 96 % 0 in /  0.0 mm
09:32 64.8 °F /  18.2 °C 63.9 °F /  17.7 °C 30.1 in /  1020.2 hPa SW 2 mph /  3.2 km/h 2 mph /  3.2 km/h 97 % 0 in /  0.0 mm
09:37 64.8 °F /  18.2 °C 63.7 °F /  17.6 °C 30.1 in /  1020.2 hPa Calm   4 mph /  6.4 km/h 96 % 0 in /  0.0 mm
09:42 65.1 °F /  18.4 °C 64.2 °F /  17.9 °C 30.1 in /  1020.2 hPa SSW 3 mph /  4.8 km/h 4 mph /  6.4 km/h 97 % 0 in /  0.0 mm
09:47 65.1 °F /  18.4 °C 64 °F /  17.8 °C 30.1 in /  1020.2 hPa Calm   4 mph /  6.4 km/h 96 % 0 in /  0.0 mm
09:52 65.5 °F /  18.6 °C 64.2 °F /  17.9 °C 30.1 in /  1020.2 hPa South 1 mph /  1.6 km/h 4 mph /  6.4 km/h 96 % 0 in /  0.0 mm
09:57 65.8 °F /  18.8 °C 64.6 °F /  18.1 °C 30.1 in /  1020.2 hPa SSE 2 mph /  3.2 km/h 4 mph /  6.4 km/h 96 % 0 in /  0.0 mm
10:02 65.8 °F /  18.8 °C 64.4 °F /  18.0 °C 30.1 in /  1020.5 hPa South 2 mph /  3.2 km/h 4 mph /  6.4 km/h 95 % 0.01 in /  0.3 mm
10:12 66.6 °F /  19.2 °C 65.3 °F /  18.5 °C 30.1 in /  1020.5 hPa WSW 2 mph /  3.2 km/h 6 mph /  9.7 km/h 96 % 0.01 in /  0.3 mm
10:17 66.7 °F /  19.3 °C 65.5 °F /  18.6 °C 30.1 in /  1020.5 hPa WSW 2 mph /  3.2 km/h 6 mph /  9.7 km/h 96 % 0.01 in /  0.3 mm
10:22 67.5 °F /  19.7 °C 66 °F /  18.9 °C 30.1 in /  1020.2 hPa SSW 1 mph /  1.6 km/h 6 mph /  9.7 km/h 95 % 0.01 in /  0.3 mm
10:27 68.4 °F /  20.2 °C 66.9 °F /  19.4 °C 30.1 in /  1020.5 hPa WSW 3 mph /  4.8 km/h 5 mph /  8.0 km/h 95 % 0.01 in /  0.3 mm
10:32 68.4 °F /  20.2 °C 66.2 °F /  19.0 °C 30.1 in /  1020.2 hPa SSW 1 mph /  1.6 km/h 4 mph /  6.4 km/h 93 % 0.01 in /  0.3 mm
10:37 69.1 °F /  20.6 °C 66.9 °F /  19.4 °C 30.1 in /  1020.2 hPa SSW 2 mph /  3.2 km/h 4 mph /  6.4 km/h 93 % 0.01 in /  0.3 mm
10:42 69.6 °F /  20.9 °C 66.9 °F /  19.4 °C 30.1 in /  1020.2 hPa Calm   4 mph /  6.4 km/h 91 % 0.01 in /  0.3 mm
10:47 70.7 °F /  21.5 °C 67.6 °F /  19.8 °C 30.1 in /  1020.2 hPa Calm   3 mph /  4.8 km/h 90 % 0.01 in /  0.3 mm
10:52 71.4 °F /  21.9 °C 67.1 °F /  19.5 °C 30.1 in /  1020.2 hPa Calm   3 mph /  4.8 km/h 86 % 0.01 in /  0.3 mm
10:57 71.8 °F /  22.1 °C 66.7 °F /  19.3 °C 30.1 in /  1020.2 hPa South 1 mph /  1.6 km/h 5 mph /  8.0 km/h 84 % 0 in /  0.0 mm
11:02 72.3 °F /  22.4 °C 67.3 °F /  19.6 °C 30.1 in /  1020.2 hPa Calm   5 mph /  8.0 km/h 84 % 0 in /  0.0 mm
11:07 73 °F /  22.8 °C 66.9 °F /  19.4 °C 30.1 in /  1020.2 hPa West 1 mph /  1.6 km/h 5 mph /  8.0 km/h 81 % 0 in /  0.0 mm
11:12 73.6 °F /  23.1 °C 66.7 °F /  19.3 °C 30.1 in /  1020.2 hPa West 2 mph /  3.2 km/h 4 mph /  6.4 km/h 79 % 0 in /  0.0 mm
11:17 73.9 °F /  23.3 °C 67.5 °F /  19.7 °C 30.1 in /  1020.2 hPa SW 1 mph /  1.6 km/h 4 mph /  6.4 km/h 80 % 0 in /  0.0 mm
11:22 74.1 °F /  23.4 °C 66.7 °F /  19.3 °C 30.1 in /  1020.2 hPa SW 2 mph /  3.2 km/h 4 mph /  6.4 km/h 78 % 0 in /  0.0 mm
11:27 74.7 °F /  23.7 °C 67.3 °F /  19.6 °C 30.1 in /  1020.2 hPa SW 2 mph /  3.2 km/h 4 mph /  6.4 km/h 78 % 0 in /  0.0 mm
11:32 75.4 °F /  24.1 °C 66.6 °F /  19.2 °C 30.1 in /  1020.2 hPa Calm   4 mph /  6.4 km/h 74 % 0 in /  0.0 mm
11:37 75 °F /  23.9 °C 66.6 °F /  19.2 °C 30.1 in /  1020.2 hPa Calm   5 mph /  8.0 km/h 75 % 0 in /  0.0 mm
11:42 75.9 °F /  24.4 °C 66.6 °F /  19.2 °C 30.1 in /  1020.2 hPa SW 3 mph /  4.8 km/h 5 mph /  8.0 km/h 73 % 0 in /  0.0 mm
11:52 76.6 °F /  24.8 °C 64.4 °F /  18.0 °C 30.1 in /  1019.9 hPa SSW 4 mph /  6.4 km/h 5 mph /  8.0 km/h 66 % 0 in /  0.0 mm
11:57 76.6 °F /  24.8 °C 64.9 °F /  18.3 °C 30.1 in /  1020.2 hPa SSE 2 mph /  3.2 km/h 6 mph /  9.7 km/h 67 % 0 in /  0.0 mm
12:02 76.8 °F /  24.9 °C 63.3 °F /  17.4 °C 30.1 in /  1019.9 hPa WSW 5 mph /  8.0 km/h 6 mph /  9.7 km/h 63 % 0 in /  0.0 mm
12:07 77 °F /  25.0 °C 64.8 °F /  18.2 °C 30.1 in /  1020.2 hPa South 3 mph /  4.8 km/h 8 mph /  12.9 km/h 66 % 0 in /  0.0 mm
12:12 77.4 °F /  25.2 °C 65.1 °F /  18.4 °C 30.1 in /  1019.9 hPa Calm   8 mph /  12.9 km/h 66 % 0 in /  0.0 mm
12:17 77.5 °F /  25.3 °C 63.5 °F /  17.5 °C 30.1 in /  1020.2 hPa West 3 mph /  4.8 km/h 8 mph /  12.9 km/h 62 % 0 in /  0.0 mm
12:22 77.9 °F /  25.5 °C 63.3 °F /  17.4 °C 30.1 in /  1020.2 hPa WSW 3 mph /  4.8 km/h 6 mph /  9.7 km/h 61 % 0 in /  0.0 mm
12:27 78.3 °F /  25.7 °C 63.3 °F /  17.4 °C 30.1 in /  1020.2 hPa South 4 mph /  6.4 km/h 6 mph /  9.7 km/h 60 % 0 in /  0.0 mm
12:32 78.3 °F /  25.7 °C 63.3 °F /  17.4 °C 30.1 in /  1020.2 hPa SSW 7 mph /  11.3 km/h 8 mph /  12.9 km/h 60 % 0 in /  0.0 mm
12:37 78.1 °F /  25.6 °C 63.1 °F /  17.3 °C 30.1 in /  1020.2 hPa WSW 2 mph /  3.2 km/h 10 mph /  16.1 km/h 60 % 0 in /  0.0 mm
12:42 78.1 °F /  25.6 °C 62.6 °F /  17.0 °C 30.1 in /  1019.9 hPa SW 7 mph /  11.3 km/h 10 mph /  16.1 km/h 59 % 0 in /  0.0 mm
12:47 78.1 °F /  25.6 °C 62.6 °F /  17.0 °C 30.1 in /  1019.9 hPa WSW 1 mph /  1.6 km/h 10 mph /  16.1 km/h 59 % 0 in /  0.0 mm
12:52 78.4 °F /  25.8 °C 63.3 °F /  17.4 °C 30.1 in /  1019.9 hPa WSW 5 mph /  8.0 km/h 7 mph /  11.3 km/h 60 % 0 in /  0.0 mm
12:57 78.6 °F /  25.9 °C 63.1 °F /  17.3 °C 30.1 in /  1019.9 hPa WSW 2 mph /  3.2 km/h 7 mph /  11.3 km/h 59 % 0 in /  0.0 mm
13:02 78.4 °F /  25.8 °C 62.4 °F /  16.9 °C 30.1 in /  1019.9 hPa West 4 mph /  6.4 km/h 7 mph /  11.3 km/h 58 % 0 in /  0.0 mm
13:12 79 °F /  26.1 °C 63.9 °F /  17.7 °C 30.1 in /  1019.9 hPa SW 7 mph /  11.3 km/h 7 mph /  11.3 km/h 60 % 0 in /  0.0 mm
13:17 79.2 °F /  26.2 °C 64 °F /  17.8 °C 30.1 in /  1019.9 hPa SSW 6 mph /  9.7 km/h 10 mph /  16.1 km/h 60 % 0 in /  0.0 mm
13:22 79.2 °F /  26.2 °C 62.6 °F /  17.0 °C 30.1 in /  1019.9 hPa SW 5 mph /  8.0 km/h 10 mph /  16.1 km/h 57 % 0 in /  0.0 mm
13:27 79.5 °F /  26.4 °C 63.5 °F /  17.5 °C 30.1 in /  1019.5 hPa SW 2 mph /  3.2 km/h 10 mph /  16.1 km/h 58 % 0 in /  0.0 mm
13:32 79.7 °F /  26.5 °C 63.7 °F /  17.6 °C 30.1 in /  1019.5 hPa SW 7 mph /  11.3 km/h 11 mph /  17.7 km/h 58 % 0 in /  0.0 mm
13:37 79.9 °F /  26.6 °C 63.9 °F /  17.7 °C 30.1 in /  1019.5 hPa SW 6 mph /  9.7 km/h 11 mph /  17.7 km/h 58 % 0 in /  0.0 mm
13:42 79.9 °F /  26.6 °C 63.9 °F /  17.7 °C 30.1 in /  1019.2 hPa South 2 mph /  3.2 km/h 11 mph /  17.7 km/h 58 % 0 in /  0.0 mm
13:47 80.4 °F /  26.9 °C 63.9 °F /  17.7 °C 30.1 in /  1019.2 hPa South 5 mph /  8.0 km/h 11 mph /  17.7 km/h 57 % 0 in /  0.0 mm
13:52 80.8 °F /  27.1 °C 64.6 °F /  18.1 °C 30.1 in /  1019.2 hPa SW 7 mph /  11.3 km/h 11 mph /  17.7 km/h 58 % 0 in /  0.0 mm
13:57 80.8 °F /  27.1 °C 65.1 °F /  18.4 °C 30.1 in /  1019.2 hPa SSW 4 mph /  6.4 km/h 9 mph /  14.5 km/h 59 % 0 in /  0.0 mm
14:02 80.6 °F /  27.0 °C 64.4 °F /  18.0 °C 30.1 in /  1018.8 hPa SSW 4 mph /  6.4 km/h 10 mph /  16.1 km/h 58 % 0 in /  0.0 mm
14:12 81 °F /  27.2 °C 64.2 °F /  17.9 °C 30.1 in /  1018.8 hPa WSW 7 mph /  11.3 km/h 10 mph /  16.1 km/h 57 % 0 in /  0.0 mm
14:17 80.8 °F /  27.1 °C 64 °F /  17.8 °C 30.1 in /  1018.8 hPa Calm   9 mph /  14.5 km/h 57 % 0 in /  0.0 mm
14:22 81.1 °F /  27.3 °C 64.4 °F /  18.0 °C 30.1 in /  1018.8 hPa SW 7 mph /  11.3 km/h 9 mph /  14.5 km/h 57 % 0 in /  0.0 mm
14:27 81.3 °F /  27.4 °C 63.7 °F /  17.6 °C 30.1 in /  1018.8 hPa SSW 2 mph /  3.2 km/h 9 mph /  14.5 km/h 55 % 0 in /  0.0 mm
14:32 81.3 °F /  27.4 °C 65.1 °F /  18.4 °C 30.1 in /  1018.8 hPa SSW 8 mph /  12.9 km/h 9 mph /  14.5 km/h 58 % 0 in /  0.0 mm
14:37 81 °F /  27.2 °C 63.3 °F /  17.4 °C 30.1 in /  1018.5 hPa SW 1 mph /  1.6 km/h 10 mph /  16.1 km/h 55 % 0 in /  0.0 mm
14:42 81.7 °F /  27.6 °C 63.9 °F /  17.7 °C 30.1 in /  1018.5 hPa WSW 5 mph /  8.0 km/h 10 mph /  16.1 km/h 55 % 0 in /  0.0 mm
14:47 81.7 °F /  27.6 °C 64.9 °F /  18.3 °C 30.1 in /  1018.5 hPa SW 5 mph /  8.0 km/h 10 mph /  16.1 km/h 57 % 0 in /  0.0 mm
14:52 81.9 °F /  27.7 °C 64.6 °F /  18.1 °C 30.1 in /  1018.5 hPa WSW 5 mph /  8.0 km/h 10 mph /  16.1 km/h 56 % 0 in /  0.0 mm
14:57 82 °F /  27.8 °C 63.7 °F /  17.6 °C 30.1 in /  1018.5 hPa SSW 7 mph /  11.3 km/h 11 mph /  17.7 km/h 54 % 0 in /  0.0 mm
15:02 81.9 °F /  27.7 °C 64.6 °F /  18.1 °C 30.1 in /  1018.5 hPa WSW 4 mph /  6.4 km/h 12 mph /  19.3 km/h 56 % 0 in /  0.0 mm
15:07 82.2 °F /  27.9 °C 64.4 °F /  18.0 °C 30.1 in /  1018.5 hPa WSW 7 mph /  11.3 km/h 12 mph /  19.3 km/h 55 % 0 in /  0.0 mm
15:12 82.2 °F /  27.9 °C 64.4 °F /  18.0 °C 30.1 in /  1018.5 hPa SW 4 mph /  6.4 km/h 12 mph /  19.3 km/h 55 % 0 in /  0.0 mm
15:17 82.2 °F /  27.9 °C 65.5 °F /  18.6 °C 30.1 in /  1018.2 hPa South 7 mph /  11.3 km/h 10 mph /  16.1 km/h 57 % 0 in /  0.0 mm
15:22 82 °F /  27.8 °C 64.2 °F /  17.9 °C 30.1 in /  1018.2 hPa SW 11 mph /  17.7 km/h 11 mph /  17.7 km/h 55 % 0 in /  0.0 mm
15:27 82 °F /  27.8 °C 64.2 °F /  17.9 °C 30.1 in /  1018.2 hPa SW 4 mph /  6.4 km/h 15 mph /  24.1 km/h 55 % 0 in /  0.0 mm
15:32 82.2 °F /  27.9 °C 64.4 °F /  18.0 °C 30.1 in /  1018.2 hPa WSW 1 mph /  1.6 km/h 15 mph /  24.1 km/h 55 % 0 in /  0.0 mm
15:37 82.6 °F /  28.1 °C 63.7 °F /  17.6 °C 30.1 in /  1018.2 hPa WSW 6 mph /  9.7 km/h 15 mph /  24.1 km/h 53 % 0 in /  0.0 mm
15:47 82.2 °F /  27.9 °C 63.3 °F /  17.4 °C 30.1 in /  1018.2 hPa WSW 2 mph /  3.2 km/h 12 mph /  19.3 km/h 53 % 0 in /  0.0 mm
15:52 82.6 °F /  28.1 °C 64.2 °F /  17.9 °C 30.1 in /  1017.8 hPa SW 5 mph /  8.0 km/h 12 mph /  19.3 km/h 54 % 0 in /  0.0 mm
15:57 82.9 °F /  28.3 °C 65.1 °F /  18.4 °C 30.1 in /  1017.8 hPa SSE 6 mph /  9.7 km/h 11 mph /  17.7 km/h 55 % 0 in /  0.0 mm
16:02 83.1 °F /  28.4 °C 64.2 °F /  17.9 °C 30.1 in /  1017.8 hPa SW 5 mph /  8.0 km/h 11 mph /  17.7 km/h 53 % 0 in /  0.0 mm
16:07 83.1 °F /  28.4 °C 63.7 °F /  17.6 °C 30.1 in /  1017.8 hPa SW 5 mph /  8.0 km/h 11 mph /  17.7 km/h 52 % 0 in /  0.0 mm
16:12 83.1 °F /  28.4 °C 64.8 °F /  18.2 °C 30.1 in /  1017.8 hPa West 7 mph /  11.3 km/h 11 mph /  17.7 km/h 54 % 0 in /  0.0 mm
16:17 83.5 °F /  28.6 °C 65.1 °F /  18.4 °C 30.1 in /  1017.8 hPa WSW 13 mph /  20.9 km/h 13 mph /  20.9 km/h 54 % 0 in /  0.0 mm
16:22 83.1 °F /  28.4 °C 63.1 °F /  17.3 °C 30.1 in /  1017.5 hPa WSW 2 mph /  3.2 km/h 13 mph /  20.9 km/h 51 % 0 in /  0.0 mm
16:27 83.7 °F /  28.7 °C 65.3 °F /  18.5 °C 30.1 in /  1017.5 hPa WSW 8 mph /  12.9 km/h 13 mph /  20.9 km/h 54 % 0 in /  0.0 mm
16:32 83.7 °F /  28.7 °C 65.8 °F /  18.8 °C 30.1 in /  1017.5 hPa WSW 2 mph /  3.2 km/h 13 mph /  20.9 km/h 55 % 0 in /  0.0 mm
16:37 83.8 °F /  28.8 °C 64.9 °F /  18.3 °C 30.1 in /  1017.5 hPa SW 1 mph /  1.6 km/h 11 mph /  17.7 km/h 53 % 0 in /  0.0 mm
16:42 83.8 °F /  28.8 °C 64.9 °F /  18.3 °C 30.1 in /  1017.8 hPa WSW 4 mph /  6.4 km/h 11 mph /  17.7 km/h 53 % 0 in /  0.0 mm
16:47 83.7 °F /  28.7 °C 64.2 °F /  17.9 °C 30.1 in /  1017.8 hPa WSW 7 mph /  11.3 km/h 13 mph /  20.9 km/h 52 % 0 in /  0.0 mm
16:52 83.7 °F /  28.7 °C 66.4 °F /  19.1 °C 30.1 in /  1017.5 hPa WSW 6 mph /  9.7 km/h 13 mph /  20.9 km/h 56 % 0 in /  0.0 mm
16:57 83.7 °F /  28.7 °C 64.2 °F /  17.9 °C 30.1 in /  1017.5 hPa SW 2 mph /  3.2 km/h 13 mph /  20.9 km/h 52 % 0 in /  0.0 mm
17:02 83.7 °F /  28.7 °C 65.3 °F /  18.5 °C 30.1 in /  1017.5 hPa West 5 mph /  8.0 km/h 7 mph /  11.3 km/h 54 % 0 in /  0.0 mm
17:07 83.7 °F /  28.7 °C 64.8 °F /  18.2 °C 30.1 in /  1017.5 hPa West 6 mph /  9.7 km/h 11 mph /  17.7 km/h 53 % 0 in /  0.0 mm
17:12 83.7 °F /  28.7 °C 64.8 °F /  18.2 °C 30.1 in /  1017.5 hPa West 2 mph /  3.2 km/h 11 mph /  17.7 km/h 53 % 0 in /  0.0 mm
17:17 83.7 °F /  28.7 °C 65.3 °F /  18.5 °C 30.1 in /  1017.5 hPa West 7 mph /  11.3 km/h 11 mph /  17.7 km/h 54 % 0 in /  0.0 mm
17:22 83.5 °F /  28.6 °C 65.1 °F /  18.4 °C 30 in /  1017.2 hPa WSW 6 mph /  9.7 km/h 10 mph /  16.1 km/h 54 % 0 in /  0.0 mm
17:27 83.5 °F /  28.6 °C 65.1 °F /  18.4 °C 30 in /  1017.2 hPa WSW 3 mph /  4.8 km/h 10 mph /  16.1 km/h 54 % 0 in /  0.0 mm
17:32 83.7 °F /  28.7 °C 65.3 °F /  18.5 °C 30 in /  1017.2 hPa SW 6 mph /  9.7 km/h 10 mph /  16.1 km/h 54 % 0 in /  0.0 mm
17:37 83.8 °F /  28.8 °C 64.9 °F /  18.3 °C 30 in /  1017.2 hPa SW 2 mph /  3.2 km/h 10 mph /  16.1 km/h 53 % 0 in /  0.0 mm
17:42 84.2 °F /  29.0 °C 65.3 °F /  18.5 °C 30 in /  1017.2 hPa West 7 mph /  11.3 km/h 10 mph /  16.1 km/h 53 % 0 in /  0.0 mm
17:47 84.2 °F /  29.0 °C 65.7 °F /  18.7 °C 30 in /  1017.2 hPa WSW 6 mph /  9.7 km/h 9 mph /  14.5 km/h 54 % 0 in /  0.0 mm
17:52 84.4 °F /  29.1 °C 65.3 °F /  18.5 °C 30 in /  1017.2 hPa West 6 mph /  9.7 km/h 10 mph /  16.1 km/h 53 % 0 in /  0.0 mm
17:57 84.4 °F /  29.1 °C 64.2 °F /  17.9 °C 30 in /  1017.2 hPa WSW 5 mph /  8.0 km/h 11 mph /  17.7 km/h 51 % 0 in /  0.0 mm
18:02 84.4 °F /  29.1 °C 65.8 °F /  18.8 °C 30 in /  1016.8 hPa SW 8 mph /  12.9 km/h 11 mph /  17.7 km/h 54 % 0 in /  0.0 mm
18:07 84.4 °F /  29.1 °C 64.8 °F /  18.2 °C 30 in /  1016.8 hPa SW 4 mph /  6.4 km/h 10 mph /  16.1 km/h 52 % 0 in /  0.0 mm
18:12 84.6 °F /  29.2 °C 64.9 °F /  18.3 °C 30 in /  1016.8 hPa SW 5 mph /  8.0 km/h 10 mph /  16.1 km/h 52 % 0 in /  0.0 mm
18:17 84.6 °F /  29.2 °C 64.9 °F /  18.3 °C 30 in /  1016.8 hPa South 2 mph /  3.2 km/h 10 mph /  16.1 km/h 52 % 0 in /  0.0 mm
18:22 84.7 °F /  29.3 °C 67.8 °F /  19.9 °C 30 in /  1016.5 hPa SW 4 mph /  6.4 km/h 10 mph /  16.1 km/h 57 % 0 in /  0.0 mm
18:27 84.9 °F /  29.4 °C 67.5 °F /  19.7 °C 30 in /  1016.5 hPa SW 2 mph /  3.2 km/h 8 mph /  12.9 km/h 56 % 0 in /  0.0 mm
18:32 85.1 °F /  29.5 °C 66.6 °F /  19.2 °C 30 in /  1016.5 hPa SSW 4 mph /  6.4 km/h 7 mph /  11.3 km/h 54 % 0 in /  0.0 mm
18:37 84.9 °F /  29.4 °C 65.8 °F /  18.8 °C 30 in /  1016.1 hPa SW 4 mph /  6.4 km/h 6 mph /  9.7 km/h 53 % 0 in /  0.0 mm
18:42 84.7 °F /  29.3 °C 66.2 °F /  19.0 °C 30 in /  1016.1 hPa SW 3 mph /  4.8 km/h 8 mph /  12.9 km/h 54 % 0 in /  0.0 mm
18:47 84.7 °F /  29.3 °C 66.2 °F /  19.0 °C 30 in /  1016.1 hPa WSW 3 mph /  4.8 km/h 8 mph /  12.9 km/h 54 % 0 in /  0.0 mm
18:52 84.7 °F /  29.3 °C 66.7 °F /  19.3 °C 30 in /  1016.1 hPa WSW 3 mph /  4.8 km/h 8 mph /  12.9 km/h 55 % 0 in /  0.0 mm
18:57 84.6 °F /  29.2 °C 66 °F /  18.9 °C 30 in /  1016.1 hPa SW 4 mph /  6.4 km/h 8 mph /  12.9 km/h 54 % 0 in /  0.0 mm
19:02 84.7 °F /  29.3 °C 65.7 °F /  18.7 °C 30 in /  1016.1 hPa SW 6 mph /  9.7 km/h 10 mph /  16.1 km/h 53 % 0 in /  0.0 mm
19:07 84.7 °F /  29.3 °C 65.7 °F /  18.7 °C 30 in /  1016.1 hPa WSW 4 mph /  6.4 km/h 10 mph /  16.1 km/h 53 % 0 in /  0.0 mm
19:12 84.9 °F /  29.4 °C 66.9 °F /  19.4 °C 30 in /  1016.1 hPa SW 4 mph /  6.4 km/h 9 mph /  14.5 km/h 55 % 0 in /  0.0 mm
19:17 84.9 °F /  29.4 °C 66.4 °F /  19.1 °C 30 in /  1016.1 hPa SSW 3 mph /  4.8 km/h 8 mph /  12.9 km/h 54 % 0 in /  0.0 mm
19:22 84.9 °F /  29.4 °C 66.4 °F /  19.1 °C 30 in /  1016.1 hPa WSW 3 mph /  4.8 km/h 8 mph /  12.9 km/h 54 % 0 in /  0.0 mm
19:27 84.9 °F /  29.4 °C 66.9 °F /  19.4 °C 30 in /  1016.1 hPa WSW 4 mph /  6.4 km/h 8 mph /  12.9 km/h 55 % 0 in /  0.0 mm
19:32 84.9 °F /  29.4 °C 67.5 °F /  19.7 °C 30 in /  1015.8 hPa SW 6 mph /  9.7 km/h 8 mph /  12.9 km/h 56 % 0 in /  0.0 mm
19:37 84.7 °F /  29.3 °C 66.7 °F /  19.3 °C 30 in /  1015.8 hPa West 5 mph /  8.0 km/h 9 mph /  14.5 km/h 55 % 0 in /  0.0 mm
19:42 84.7 °F /  29.3 °C 66.7 °F /  19.3 °C 30 in /  1016.1 hPa WSW 4 mph /  6.4 km/h 9 mph /  14.5 km/h 55 % 0 in /  0.0 mm
19:47 84.7 °F /  29.3 °C 66.7 °F /  19.3 °C 30 in /  1016.1 hPa SW 3 mph /  4.8 km/h 9 mph /  14.5 km/h 55 % 0 in /  0.0 mm
19:52 84.7 °F /  29.3 °C 67.3 °F /  19.6 °C 30 in /  1015.8 hPa SW 4 mph /  6.4 km/h 6 mph /  9.7 km/h 56 % 0 in /  0.0 mm
19:57 84.7 °F /  29.3 °C 67.3 °F /  19.6 °C 30 in /  1015.8 hPa SW 1 mph /  1.6 km/h 6 mph /  9.7 km/h 56 % 0 in /  0.0 mm
20:02 84.6 °F /  29.2 °C 67.1 °F /  19.5 °C 30 in /  1015.8 hPa SSW 3 mph /  4.8 km/h 6 mph /  9.7 km/h 56 % 0 in /  0.0 mm
20:07 84.6 °F /  29.2 °C 67.1 °F /  19.5 °C 30 in /  1015.8 hPa SW 4 mph /  6.4 km/h 5 mph /  8.0 km/h 56 % 0 in /  0.0 mm
20:12 84.2 °F /  29.0 °C 66.2 °F /  19.0 °C 30 in /  1015.8 hPa WSW 5 mph /  8.0 km/h 7 mph /  11.3 km/h 55 % 0 in /  0.0 mm
20:17 83.8 °F /  28.8 °C 66.4 °F /  19.1 °C 30 in /  1015.8 hPa SW 4 mph /  6.4 km/h 8 mph /  12.9 km/h 56 % 0 in /  0.0 mm
20:27 83.1 °F /  28.4 °C 66.4 °F /  19.1 °C 30 in /  1015.8 hPa SW 3 mph /  4.8 km/h 8 mph /  12.9 km/h 57 % 0 in /  0.0 mm
20:32 82.8 °F /  28.2 °C 66.9 °F /  19.4 °C 30 in /  1015.8 hPa SW 2 mph /  3.2 km/h 6 mph /  9.7 km/h 59 % 0 in /  0.0 mm
20:37 82.2 °F /  27.9 °C 67.5 °F /  19.7 °C 30 in /  1015.8 hPa SW 2 mph /  3.2 km/h 6 mph /  9.7 km/h 61 % 0 in /  0.0 mm
20:42 82 °F /  27.8 °C 67.3 °F /  19.6 °C 30 in /  1015.8 hPa SSW 2 mph /  3.2 km/h 6 mph /  9.7 km/h 61 % 0 in /  0.0 mm
20:47 81.7 °F /  27.6 °C 67.5 °F /  19.7 °C 30 in /  1015.8 hPa SW 3 mph /  4.8 km/h 4 mph /  6.4 km/h 62 % 0 in /  0.0 mm
20:52 81.3 °F /  27.4 °C 67.5 °F /  19.7 °C 30 in /  1015.8 hPa SSW 2 mph /  3.2 km/h 4 mph /  6.4 km/h 63 % 0 in /  0.0 mm
20:57 80.8 °F /  27.1 °C 68 °F /  20.0 °C 30 in /  1015.8 hPa SSW 1 mph /  1.6 km/h 4 mph /  6.4 km/h 65 % 0 in /  0.0 mm
21:02 80.2 °F /  26.8 °C 67.5 °F /  19.7 °C 30 in /  1015.8 hPa SSW 1 mph /  1.6 km/h 4 mph /  6.4 km/h 65 % 0 in /  0.0 mm
21:07 79.9 °F /  26.6 °C 68 °F /  20.0 °C 30 in /  1016.1 hPa SW 2 mph /  3.2 km/h 3 mph /  4.8 km/h 67 % 0 in /  0.0 mm
21:12 79.5 °F /  26.4 °C 67.6 °F /  19.8 °C 30 in /  1016.1 hPa SW 2 mph /  3.2 km/h 2 mph /  3.2 km/h 67 % 0 in /  0.0 mm
21:17 79.7 °F /  26.5 °C 66.9 °F /  19.4 °C 30 in /  1016.1 hPa SW 3 mph /  4.8 km/h 3 mph /  4.8 km/h 65 % 0 in /  0.0 mm
21:22 79.9 °F /  26.6 °C 67.1 °F /  19.5 °C 30 in /  1016.1 hPa SW 3 mph /  4.8 km/h 3 mph /  4.8 km/h 65 % 0 in /  0.0 mm
21:27 79.9 °F /  26.6 °C 67.1 °F /  19.5 °C 30 in /  1016.1 hPa SSW 3 mph /  4.8 km/h 5 mph /  8.0 km/h 65 % 0 in /  0.0 mm
21:32 79.5 °F /  26.4 °C 66.7 °F /  19.3 °C 30 in /  1016.1 hPa WSW 3 mph /  4.8 km/h 5 mph /  8.0 km/h 65 % 0 in /  0.0 mm
21:37 79.7 °F /  26.5 °C 66.9 °F /  19.4 °C 30 in /  1016.1 hPa SW 3 mph /  4.8 km/h 5 mph /  8.0 km/h 65 % 0 in /  0.0 mm
21:42 79.5 °F /  26.4 °C 67.1 °F /  19.5 °C 30 in /  1016.1 hPa SW 4 mph /  6.4 km/h 5 mph /  8.0 km/h 66 % 0 in /  0.0 mm
21:47 79.2 °F /  26.2 °C 66.7 °F /  19.3 °C 30 in /  1016.1 hPa SW 4 mph /  6.4 km/h 5 mph /  8.0 km/h 66 % 0 in /  0.0 mm
21:52 79 °F /  26.1 °C 67.1 °F /  19.5 °C 30 in /  1016.1 hPa SW 4 mph /  6.4 km/h 5 mph /  8.0 km/h 67 % 0 in /  0.0 mm
21:57 78.6 °F /  25.9 °C 67.1 °F /  19.5 °C 30 in /  1016.1 hPa SW 3 mph /  4.8 km/h 5 mph /  8.0 km/h 68 % 0 in /  0.0 mm
22:02 78.6 °F /  25.9 °C 66.7 °F /  19.3 °C 30 in /  1016.1 hPa SW 3 mph /  4.8 km/h 5 mph /  8.0 km/h 67 % 0 in /  0.0 mm
22:12 78.8 °F /  26.0 °C 66.9 °F /  19.4 °C 30 in /  1016.5 hPa WSW 2 mph /  3.2 km/h 6 mph /  9.7 km/h 67 % 0 in /  0.0 mm
22:17 77.9 °F /  25.5 °C 67.3 °F /  19.6 °C 30 in /  1016.5 hPa WSW 1 mph /  1.6 km/h 6 mph /  9.7 km/h 70 % 0 in /  0.0 mm
22:22 77.4 °F /  25.2 °C 67.3 °F /  19.6 °C 30 in /  1016.5 hPa West 1 mph /  1.6 km/h 6 mph /  9.7 km/h 71 % 0 in /  0.0 mm
22:27 76.8 °F /  24.9 °C 67.1 °F /  19.5 °C 30 in /  1016.5 hPa WSW 1 mph /  1.6 km/h 5 mph /  8.0 km/h 72 % 0 in /  0.0 mm
22:32 76.8 °F /  24.9 °C 67.1 °F /  19.5 °C 30 in /  1016.5 hPa Calm   4 mph /  6.4 km/h 72 % 0 in /  0.0 mm
22:37 76.6 °F /  24.8 °C 66.9 °F /  19.4 °C 30 in /  1016.5 hPa West 2 mph /  3.2 km/h 3 mph /  4.8 km/h 72 % 0 in /  0.0 mm
22:42 76.8 °F /  24.9 °C 67.1 °F /  19.5 °C 30 in /  1016.5 hPa WSW 2 mph /  3.2 km/h 3 mph /  4.8 km/h 72 % 0 in /  0.0 mm
22:47 76.8 °F /  24.9 °C 67.1 °F /  19.5 °C 30 in /  1016.5 hPa Calm   3 mph /  4.8 km/h 72 % 0 in /  0.0 mm
22:52 75.9 °F /  24.4 °C 67.1 °F /  19.5 °C 30 in /  1016.5 hPa Calm   3 mph /  4.8 km/h 74 % 0 in /  0.0 mm
22:57 75 °F /  23.9 °C 66.9 °F /  19.4 °C 30 in /  1016.5 hPa Calm   3 mph /  4.8 km/h 76 % 0 in /  0.0 mm
23:02 74.7 °F /  23.7 °C 66.9 °F /  19.4 °C 30 in /  1016.5 hPa Calm   1 mph /  1.6 km/h 77 % 0 in /  0.0 mm
23:07 73.9 °F /  23.3 °C 67.1 °F /  19.5 °C 30 in /  1016.5 hPa Calm   2 mph /  3.2 km/h 79 % 0 in /  0.0 mm
23:12 73.6 °F /  23.1 °C 66.7 °F /  19.3 °C 30 in /  1016.8 hPa Calm   2 mph /  3.2 km/h 79 % 0 in /  0.0 mm
23:17 73.2 °F /  22.9 °C 66.7 °F /  19.3 °C 30 in /  1016.5 hPa Calm   2 mph /  3.2 km/h 80 % 0 in /  0.0 mm
23:27 72.9 °F /  22.7 °C 66.7 °F /  19.3 °C 30 in /  1016.8 hPa Calm     81 % 0 in /  0.0 mm
23:32 72.3 °F /  22.4 °C 66.6 °F /  19.2 °C 30 in /  1016.8 hPa Calm     82 % 0 in /  0.0 mm
23:37 72 °F /  22.2 °C 66.2 °F /  19.0 °C 30 in /  1016.5 hPa Calm     82 % 0 in /  0.0 mm
23:42 71.8 °F /  22.1 °C 66.4 °F /  19.1 °C 30 in /  1016.5 hPa Calm     83 % 0 in /  0.0 mm
23:47 71.8 °F /  22.1 °C 66.4 °F /  19.1 °C 30 in /  1016.8 hPa Calm     83 % 0 in /  0.0 mm
23:52 72 °F /  22.2 °C 66.6 °F /  19.2 °C 30 in /  1016.5 hPa Calm   1 mph /  1.6 km/h 83 % 0 in /  0.0 mm
23:57 72 °F /  22.2 °C 66.2 °F /  19.0 °C 30 in /  1016.8 hPa Calm   1 mph /  1.6 km/h 82 % 0 in /  0.0 mm
Meteo18
Compliments of Weather Underground - 4 mb

Script developed by  Jim McMurry - jmcmurry@mwt.net Adapted for the template by  Wim van der Kuil - Leuven-Template.eu

You find our weather info also at:

European Weather Network

Weather Underground

Equipment we use:

Weather-station
Davis Vue

Weather-program
Meteohub

Weather-server
Raspberry PI 2 B+

Provider
1 and 1

Davis Vue

Meteohub

Raspberry PI 2 B+

1 and 1